CheckWX is a tool to help pilots better visualize weather data.  It is not intended as a substitute for an official pre-flight weather briefing.

16:26:51 UTC

VTCL METAR
Lampang Airport
Thailand
Current

27 mins ago

VTCL 161600Z 00000KT CAVOK 24/23 Q1009 NOSIG
Observed
Sep-16 @ 16:00 UTC
Visibility
10,000+ meters
Flight Rules
VFR
Cloud Levels
  • Clear skies
Temperature
24°C / 75°F
Dewpoint
23°C / 73°F
Humidity
94%
Altimeter
29.79" Hg
Pressure
1008.92 hPa
Previous

1 hour ago

VTCL 161500Z 00000KT CAVOK 25/22 Q1008 NOSIG
Observed
Sep-16 @ 15:00 UTC
Visibility
10,000+ meters
Flight Rules
VFR
Cloud Levels
  • Clear skies
Temperature
25°C / 77°F
Dewpoint
22°C / 72°F
Humidity
83%
Altimeter
29.76" Hg
Pressure
1007.92 hPa
Previous

2 hours ago

VTCL 161400Z 00000KT CAVOK 25/23 Q1008 NOSIG
Observed
Sep-16 @ 14:00 UTC
Visibility
10,000+ meters
Flight Rules
VFR
Cloud Levels
  • Clear skies
Temperature
25°C / 77°F
Dewpoint
23°C / 73°F
Humidity
89%
Altimeter
29.76" Hg
Pressure
1007.92 hPa